sensor_id;sensor_type;location;lat;lon;timestamp;P1;durP1;ratioP1;P2;durP2;ratioP2
23586;SDS011;11971;51.148;4.104;2023-04-24T00:01:36;103.93;;;44.10;;
23586;SDS011;11971;51.148;4.104;2023-04-24T00:04:04;103.25;;;43.55;;
23586;SDS011;11971;51.148;4.104;2023-04-24T00:06:33;102.10;;;42.47;;
23586;SDS011;11971;51.148;4.104;2023-04-24T00:09:07;102.35;;;43.00;;
23586;SDS011;11971;51.148;4.104;2023-04-24T00:11:35;99.97;;;40.80;;
23586;SDS011;11971;51.148;4.104;2023-04-24T00:14:02;100.82;;;43.25;;
23586;SDS011;11971;51.148;4.104;2023-04-24T00:16:29;104.68;;;43.97;;
23586;SDS011;11971;51.148;4.104;2023-04-24T00:18:56;101.07;;;43.53;;
23586;SDS011;11971;51.148;4.104;2023-04-24T00:21:23;104.05;;;43.63;;
23586;SDS011;11971;51.148;4.104;2023-04-24T00:23:52;106.68;;;43.67;;
23586;SDS011;11971;51.148;4.104;2023-04-24T00:26:19;101.18;;;43.70;;
23586;SDS011;11971;51.148;4.104;2023-04-24T00:28:45;112.65;;;43.92;;
23586;SDS011;11971;51.148;4.104;2023-04-24T00:31:12;104.28;;;44.25;;
23586;SDS011;11971;51.148;4.104;2023-04-24T00:33:39;102.47;;;44.38;;
23586;SDS011;11971;51.148;4.104;2023-04-24T00:36:06;102.38;;;43.42;;
23586;SDS011;11971;51.148;4.104;2023-04-24T00:38:32;107.80;;;44.60;;
23586;SDS011;11971;51.148;4.104;2023-04-24T00:41:00;105.22;;;44.95;;
23586;SDS011;11971;51.148;4.104;2023-04-24T00:43:27;106.82;;;44.97;;
23586;SDS011;11971;51.148;4.104;2023-04-24T00:45:54;103.75;;;44.70;;
23586;SDS011;11971;51.148;4.104;2023-04-24T00:48:21;102.50;;;43.90;;
23586;SDS011;11971;51.148;4.104;2023-04-24T00:50:48;104.65;;;43.85;;
23586;SDS011;11971;51.148;4.104;2023-04-24T00:53:15;101.32;;;43.35;;
23586;SDS011;11971;51.148;4.104;2023-04-24T00:55:41;104.13;;;44.03;;
23586;SDS011;11971;51.148;4.104;2023-04-24T00:58:09;105.53;;;44.40;;
23586;SDS011;11971;51.148;4.104;2023-04-24T01:00:36;106.97;;;44.20;;
23586;SDS011;11971;51.148;4.104;2023-04-24T01:05:31;100.20;;;43.42;;
23586;SDS011;11971;51.148;4.104;2023-04-24T01:07:58;108.30;;;43.35;;
23586;SDS011;11971;51.148;4.104;2023-04-24T01:10:25;100.15;;;42.83;;
23586;SDS011;11971;51.148;4.104;2023-04-24T01:12:53;98.88;;;42.10;;
23586;SDS011;11971;51.148;4.104;2023-04-24T01:15:21;96.53;;;41.35;;
23586;SDS011;11971;51.148;4.104;2023-04-24T01:17:48;96.55;;;41.08;;
23586;SDS011;11971;51.148;4.104;2023-04-24T01:20:15;99.97;;;41.50;;
23586;SDS011;11971;51.148;4.104;2023-04-24T01:22:43;101.43;;;41.85;;
23586;SDS011;11971;51.148;4.104;2023-04-24T01:25:10;94.47;;;40.42;;
23586;SDS011;11971;51.148;4.104;2023-04-24T01:27:37;94.47;;;40.75;;
23586;SDS011;11971;51.148;4.104;2023-04-24T01:30:04;95.68;;;40.70;;
23586;SDS011;11971;51.148;4.104;2023-04-24T01:32:32;94.13;;;39.30;;
23586;SDS011;11971;51.148;4.104;2023-04-24T01:34:59;89.40;;;38.53;;
23586;SDS011;11971;51.148;4.104;2023-04-24T01:37:26;93.57;;;39.13;;
23586;SDS011;11971;51.148;4.104;2023-04-24T01:39:54;90.72;;;39.10;;
23586;SDS011;11971;51.148;4.104;2023-04-24T01:42:21;91.70;;;39.23;;
23586;SDS011;11971;51.148;4.104;2023-04-24T01:44:48;90.45;;;39.15;;
23586;SDS011;11971;51.148;4.104;2023-04-24T01:47:16;93.80;;;40.30;;
23586;SDS011;11971;51.148;4.104;2023-04-24T01:49:43;94.30;;;39.78;;
23586;SDS011;11971;51.148;4.104;2023-04-24T01:52:09;91.25;;;39.22;;
23586;SDS011;11971;51.148;4.104;2023-04-24T01:54:36;94.60;;;40.28;;
23586;SDS011;11971;51.148;4.104;2023-04-24T01:57:04;95.57;;;40.85;;
23586;SDS011;11971;51.148;4.104;2023-04-24T01:59:31;94.25;;;40.85;;
23586;SDS011;11971;51.148;4.104;2023-04-24T02:01:59;99.55;;;41.55;;
23586;SDS011;11971;51.148;4.104;2023-04-24T02:04:26;97.13;;;41.45;;
23586;SDS011;11971;51.148;4.104;2023-04-24T02:06:53;100.20;;;41.40;;
23586;SDS011;11971;51.148;4.104;2023-04-24T02:09:20;95.93;;;41.85;;
23586;SDS011;11971;51.148;4.104;2023-04-24T02:11:46;99.05;;;41.72;;
23586;SDS011;11971;51.148;4.104;2023-04-24T02:14:15;97.30;;;41.58;;
23586;SDS011;11971;51.148;4.104;2023-04-24T02:16:41;98.38;;;41.55;;
23586;SDS011;11971;51.148;4.104;2023-04-24T02:19:08;93.90;;;41.38;;
23586;SDS011;11971;51.148;4.104;2023-04-24T02:21:35;96.20;;;41.83;;
23586;SDS011;11971;51.148;4.104;2023-04-24T02:24:02;95.32;;;42.00;;
23586;SDS011;11971;51.148;4.104;2023-04-24T02:26:29;96.75;;;41.92;;
23586;SDS011;11971;51.148;4.104;2023-04-24T02:28:56;97.40;;;41.45;;
23586;SDS011;11971;51.148;4.104;2023-04-24T02:31:24;95.00;;;41.28;;
23586;SDS011;11971;51.148;4.104;2023-04-24T02:33:51;96.60;;;41.00;;
23586;SDS011;11971;51.148;4.104;2023-04-24T02:36:18;98.28;;;42.53;;
23586;SDS011;11971;51.148;4.104;2023-04-24T02:38:45;102.72;;;42.20;;
23586;SDS011;11971;51.148;4.104;2023-04-24T02:41:11;96.10;;;41.03;;
23586;SDS011;11971;51.148;4.104;2023-04-24T02:43:38;96.22;;;40.42;;
23586;SDS011;11971;51.148;4.104;2023-04-24T02:46:05;92.68;;;40.03;;
23586;SDS011;11971;51.148;4.104;2023-04-24T02:48:33;94.80;;;40.45;;
23586;SDS011;11971;51.148;4.104;2023-04-24T02:51:00;85.77;;;36.83;;
23586;SDS011;11971;51.148;4.104;2023-04-24T02:53:26;95.05;;;41.33;;
23586;SDS011;11971;51.148;4.104;2023-04-24T02:55:55;94.70;;;40.58;;
23586;SDS011;11971;51.148;4.104;2023-04-24T02:58:21;97.50;;;40.35;;
23586;SDS011;11971;51.148;4.104;2023-04-24T03:00:48;94.05;;;39.15;;
23586;SDS011;11971;51.148;4.104;2023-04-24T03:03:15;96.43;;;42.08;;
23586;SDS011;11971;51.148;4.104;2023-04-24T03:05:43;95.90;;;41.65;;
23586;SDS011;11971;51.148;4.104;2023-04-24T03:08:10;100.88;;;43.22;;
23586;SDS011;11971;51.148;4.104;2023-04-24T03:10:37;107.28;;;43.22;;
23586;SDS011;11971;51.148;4.104;2023-04-24T03:13:04;95.55;;;41.30;;
23586;SDS011;11971;51.148;4.104;2023-04-24T03:15:31;99.32;;;39.85;;
23586;SDS011;11971;51.148;4.104;2023-04-24T03:17:58;101.45;;;42.50;;
23586;SDS011;11971;51.148;4.104;2023-04-24T03:20:25;96.82;;;39.85;;
23586;SDS011;11971;51.148;4.104;2023-04-24T03:22:53;89.90;;;38.20;;
23586;SDS011;11971;51.148;4.104;2023-04-24T03:25:22;85.07;;;34.97;;
23586;SDS011;11971;51.148;4.104;2023-04-24T03:27:48;80.38;;;35.20;;
23586;SDS011;11971;51.148;4.104;2023-04-24T03:30:15;81.55;;;34.95;;
23586;SDS011;11971;51.148;4.104;2023-04-24T03:32:42;82.03;;;34.65;;
23586;SDS011;11971;51.148;4.104;2023-04-24T03:35:09;84.88;;;35.30;;
23586;SDS011;11971;51.148;4.104;2023-04-24T03:37:36;82.80;;;35.53;;
23586;SDS011;11971;51.148;4.104;2023-04-24T03:40:05;79.90;;;33.67;;
23586;SDS011;11971;51.148;4.104;2023-04-24T03:42:33;79.22;;;34.00;;
23586;SDS011;11971;51.148;4.104;2023-04-24T03:44:59;76.45;;;32.92;;
23586;SDS011;11971;51.148;4.104;2023-04-24T03:47:26;77.47;;;33.55;;
23586;SDS011;11971;51.148;4.104;2023-04-24T03:49:53;80.22;;;35.15;;
23586;SDS011;11971;51.148;4.104;2023-04-24T03:52:20;81.22;;;34.60;;
23586;SDS011;11971;51.148;4.104;2023-04-24T03:54:47;78.07;;;33.75;;
23586;SDS011;11971;51.148;4.104;2023-04-24T03:57:15;76.70;;;33.30;;
23586;SDS011;11971;51.148;4.104;2023-04-24T03:59:42;83.83;;;36.37;;
23586;SDS011;11971;51.148;4.104;2023-04-24T04:02:09;89.45;;;33.75;;
23586;SDS011;11971;51.148;4.104;2023-04-24T04:04:36;81.90;;;35.90;;
23586;SDS011;11971;51.148;4.104;2023-04-24T04:07:03;80.80;;;34.78;;
23586;SDS011;11971;51.148;4.104;2023-04-24T04:09:30;89.32;;;37.70;;
23586;SDS011;11971;51.148;4.104;2023-04-24T04:11:57;83.57;;;36.55;;
23586;SDS011;11971;51.148;4.104;2023-04-24T04:14:26;86.40;;;37.00;;
23586;SDS011;11971;51.148;4.104;2023-04-24T04:16:53;88.60;;;35.97;;
23586;SDS011;11971;51.148;4.104;2023-04-24T04:19:20;79.82;;;34.40;;
23586;SDS011;11971;51.148;4.104;2023-04-24T04:21:47;87.22;;;37.85;;
23586;SDS011;11971;51.148;4.104;2023-04-24T04:24:17;88.85;;;37.83;;
23586;SDS011;11971;51.148;4.104;2023-04-24T04:26:45;90.20;;;38.15;;
23586;SDS011;11971;51.148;4.104;2023-04-24T04:29:12;82.82;;;36.70;;
23586;SDS011;11971;51.148;4.104;2023-04-24T04:31:41;89.20;;;39.05;;
23586;SDS011;11971;51.148;4.104;2023-04-24T04:34:08;83.38;;;35.15;;
23586;SDS011;11971;51.148;4.104;2023-04-24T04:36:36;86.32;;;36.95;;
23586;SDS011;11971;51.148;4.104;2023-04-24T04:39:05;100.20;;;39.65;;
23586;SDS011;11971;51.148;4.104;2023-04-24T04:41:32;84.40;;;36.40;;
23586;SDS011;11971;51.148;4.104;2023-04-24T04:44:00;90.97;;;38.25;;
23586;SDS011;11971;51.148;4.104;2023-04-24T04:46:27;89.68;;;38.33;;
23586;SDS011;11971;51.148;4.104;2023-04-24T04:49:02;87.47;;;38.22;;
23586;SDS011;11971;51.148;4.104;2023-04-24T04:51:29;94.05;;;38.85;;
23586;SDS011;11971;51.148;4.104;2023-04-24T04:53:57;82.75;;;35.35;;
23586;SDS011;11971;51.148;4.104;2023-04-24T04:56:23;88.00;;;37.85;;
23586;SDS011;11971;51.148;4.104;2023-04-24T04:58:50;84.38;;;36.40;;
23586;SDS011;11971;51.148;4.104;2023-04-24T05:01:17;92.50;;;37.85;;
23586;SDS011;11971;51.148;4.104;2023-04-24T05:03:44;82.80;;;35.90;;
23586;SDS011;11971;51.148;4.104;2023-04-24T05:06:12;91.38;;;38.67;;
23586;SDS011;11971;51.148;4.104;2023-04-24T05:08:38;90.03;;;38.07;;
23586;SDS011;11971;51.148;4.104;2023-04-24T05:11:05;90.43;;;36.85;;
23586;SDS011;11971;51.148;4.104;2023-04-24T05:13:33;96.15;;;37.58;;
23586;SDS011;11971;51.148;4.104;2023-04-24T05:16:00;96.60;;;39.53;;
23586;SDS011;11971;51.148;4.104;2023-04-24T05:18:27;90.03;;;38.05;;
23586;SDS011;11971;51.148;4.104;2023-04-24T05:20:53;93.90;;;38.75;;
23586;SDS011;11971;51.148;4.104;2023-04-24T05:23:22;89.57;;;38.28;;
23586;SDS011;11971;51.148;4.104;2023-04-24T05:25:49;94.80;;;39.50;;
23586;SDS011;11971;51.148;4.104;2023-04-24T05:28:15;84.55;;;36.15;;
23586;SDS011;11971;51.148;4.104;2023-04-24T05:30:42;90.00;;;37.60;;
23586;SDS011;11971;51.148;4.104;2023-04-24T05:33:09;92.25;;;38.58;;
23586;SDS011;11971;51.148;4.104;2023-04-24T05:35:35;93.55;;;39.25;;
23586;SDS011;11971;51.148;4.104;2023-04-24T05:38:04;94.80;;;38.63;;
23586;SDS011;11971;51.148;4.104;2023-04-24T05:40:32;98.93;;;40.15;;
23586;SDS011;11971;51.148;4.104;2023-04-24T05:42:59;102.40;;;41.07;;
23586;SDS011;11971;51.148;4.104;2023-04-24T05:45:25;97.80;;;39.67;;
23586;SDS011;11971;51.148;4.104;2023-04-24T05:47:52;98.90;;;39.50;;
23586;SDS011;11971;51.148;4.104;2023-04-24T05:50:19;101.57;;;41.78;;
23586;SDS011;11971;51.148;4.104;2023-04-24T05:52:47;106.68;;;43.13;;
23586;SDS011;11971;51.148;4.104;2023-04-24T05:55:14;121.32;;;46.33;;
23586;SDS011;11971;51.148;4.104;2023-04-24T05:57:44;125.97;;;48.40;;
23586;SDS011;11971;51.148;4.104;2023-04-24T06:00:13;124.45;;;49.08;;
23586;SDS011;11971;51.148;4.104;2023-04-24T06:02:41;122.00;;;47.42;;
23586;SDS011;11971;51.148;4.104;2023-04-24T06:05:09;128.02;;;47.22;;
23586;SDS011;11971;51.148;4.104;2023-04-24T06:07:36;122.70;;;46.15;;
23586;SDS011;11971;51.148;4.104;2023-04-24T06:10:03;121.25;;;47.55;;
23586;SDS011;11971;51.148;4.104;2023-04-24T06:12:32;118.22;;;45.97;;
23586;SDS011;11971;51.148;4.104;2023-04-24T06:15:03;110.68;;;43.65;;
23586;SDS011;11971;51.148;4.104;2023-04-24T06:17:31;111.57;;;43.10;;
23586;SDS011;11971;51.148;4.104;2023-04-24T06:19:58;118.53;;;45.63;;
23586;SDS011;11971;51.148;4.104;2023-04-24T06:22:29;113.13;;;44.00;;
23586;SDS011;11971;51.148;4.104;2023-04-24T06:24:56;122.05;;;46.30;;
23586;SDS011;11971;51.148;4.104;2023-04-24T06:27:23;99.20;;;40.60;;
23586;SDS011;11971;51.148;4.104;2023-04-24T06:29:49;91.13;;;36.00;;
23586;SDS011;11971;51.148;4.104;2023-04-24T06:32:20;93.20;;;39.22;;
23586;SDS011;11971;51.148;4.104;2023-04-24T06:34:48;97.43;;;39.05;;
23586;SDS011;11971;51.148;4.104;2023-04-24T06:37:18;88.45;;;37.13;;
23586;SDS011;11971;51.148;4.104;2023-04-24T06:39:45;88.78;;;36.50;;
23586;SDS011;11971;51.148;4.104;2023-04-24T06:42:15;83.35;;;36.00;;
23586;SDS011;11971;51.148;4.104;2023-04-24T06:44:42;80.70;;;34.50;;
23586;SDS011;11971;51.148;4.104;2023-04-24T06:47:10;84.03;;;35.75;;
23586;SDS011;11971;51.148;4.104;2023-04-24T06:49:42;79.20;;;34.03;;
23586;SDS011;11971;51.148;4.104;2023-04-24T06:52:16;85.93;;;35.30;;
23586;SDS011;11971;51.148;4.104;2023-04-24T06:54:42;83.50;;;34.65;;
23586;SDS011;11971;51.148;4.104;2023-04-24T06:57:09;87.88;;;35.58;;
23586;SDS011;11971;51.148;4.104;2023-04-24T06:59:36;83.97;;;33.90;;
23586;SDS011;11971;51.148;4.104;2023-04-24T07:02:03;86.18;;;35.70;;
23586;SDS011;11971;51.148;4.104;2023-04-24T07:04:30;86.28;;;35.78;;
23586;SDS011;11971;51.148;4.104;2023-04-24T07:06:58;84.75;;;34.03;;
23586;SDS011;11971;51.148;4.104;2023-04-24T07:09:26;77.80;;;33.60;;
23586;SDS011;11971;51.148;4.104;2023-04-24T07:11:53;85.38;;;34.72;;
23586;SDS011;11971;51.148;4.104;2023-04-24T07:14:21;83.40;;;33.53;;
23586;SDS011;11971;51.148;4.104;2023-04-24T07:16:48;88.90;;;35.55;;
23586;SDS011;11971;51.148;4.104;2023-04-24T07:19:15;91.93;;;35.80;;
23586;SDS011;11971;51.148;4.104;2023-04-24T07:21:42;86.38;;;35.53;;
23586;SDS011;11971;51.148;4.104;2023-04-24T07:24:12;91.10;;;36.00;;
23586;SDS011;11971;51.148;4.104;2023-04-24T07:26:39;89.72;;;34.97;;
23586;SDS011;11971;51.148;4.104;2023-04-24T07:29:07;90.30;;;35.67;;
23586;SDS011;11971;51.148;4.104;2023-04-24T07:31:36;87.57;;;35.65;;
23586;SDS011;11971;51.148;4.104;2023-04-24T07:34:10;89.13;;;35.63;;
23586;SDS011;11971;51.148;4.104;2023-04-24T07:36:37;95.93;;;35.58;;
23586;SDS011;11971;51.148;4.104;2023-04-24T07:39:04;84.60;;;34.58;;
23586;SDS011;11971;51.148;4.104;2023-04-24T07:41:33;80.00;;;33.85;;
23586;SDS011;11971;51.148;4.104;2023-04-24T07:44:00;85.82;;;35.67;;
23586;SDS011;11971;51.148;4.104;2023-04-24T07:46:27;91.30;;;36.55;;
23586;SDS011;11971;51.148;4.104;2023-04-24T07:48:54;89.38;;;36.42;;
23586;SDS011;11971;51.148;4.104;2023-04-24T07:55:04;87.75;;;35.25;;
23586;SDS011;11971;51.148;4.104;2023-04-24T07:57:35;90.28;;;35.22;;
23586;SDS011;11971;51.148;4.104;2023-04-24T08:00:02;83.72;;;34.50;;
23586;SDS011;11971;51.148;4.104;2023-04-24T08:02:30;84.38;;;35.15;;
23586;SDS011;11971;51.148;4.104;2023-04-24T08:04:57;78.75;;;32.58;;
23586;SDS011;11971;51.148;4.104;2023-04-24T08:07:29;95.22;;;35.92;;
23586;SDS011;11971;51.148;4.104;2023-04-24T08:09:55;96.90;;;36.53;;
23586;SDS011;11971;51.148;4.104;2023-04-24T08:12:22;89.80;;;35.35;;
23586;SDS011;11971;51.148;4.104;2023-04-24T08:14:50;91.95;;;36.55;;
23586;SDS011;11971;51.148;4.104;2023-04-24T08:17:17;96.35;;;35.47;;
23586;SDS011;11971;51.148;4.104;2023-04-24T08:19:44;86.38;;;34.85;;
23586;SDS011;11971;51.148;4.104;2023-04-24T08:22:13;79.05;;;33.50;;
23586;SDS011;11971;51.148;4.104;2023-04-24T08:24:42;86.93;;;34.22;;
23586;SDS011;11971;51.148;4.104;2023-04-24T08:27:09;89.30;;;35.25;;
23586;SDS011;11971;51.148;4.104;2023-04-24T08:29:36;94.38;;;35.97;;
23586;SDS011;11971;51.148;4.104;2023-04-24T08:32:05;82.47;;;34.63;;
23586;SDS011;11971;51.148;4.104;2023-04-24T08:34:31;95.10;;;35.30;;
23586;SDS011;11971;51.148;4.104;2023-04-24T08:36:58;83.45;;;34.78;;
23586;SDS011;11971;51.148;4.104;2023-04-24T08:39:25;84.53;;;34.75;;
23586;SDS011;11971;51.148;4.104;2023-04-24T08:41:52;92.22;;;35.75;;
23586;SDS011;11971;51.148;4.104;2023-04-24T08:44:19;84.10;;;35.45;;
23586;SDS011;11971;51.148;4.104;2023-04-24T08:46:47;86.10;;;35.50;;
23586;SDS011;11971;51.148;4.104;2023-04-24T08:49:17;83.43;;;34.88;;
23586;SDS011;11971;51.148;4.104;2023-04-24T08:51:44;89.97;;;36.25;;
23586;SDS011;11971;51.148;4.104;2023-04-24T08:54:12;87.13;;;35.53;;
23586;SDS011;11971;51.148;4.104;2023-04-24T08:56:40;92.72;;;35.13;;
23586;SDS011;11971;51.148;4.104;2023-04-24T08:59:13;88.53;;;34.10;;
23586;SDS011;11971;51.148;4.104;2023-04-24T09:01:41;81.78;;;34.00;;
23586;SDS011;11971;51.148;4.104;2023-04-24T09:04:09;85.60;;;34.67;;
23586;SDS011;11971;51.148;4.104;2023-04-24T09:06:39;87.20;;;34.78;;
23586;SDS011;11971;51.148;4.104;2023-04-24T09:11:34;81.50;;;34.42;;
23586;SDS011;11971;51.148;4.104;2023-04-24T09:14:03;82.05;;;33.80;;
23586;SDS011;11971;51.148;4.104;2023-04-24T09:16:30;91.95;;;35.35;;
23586;SDS011;11971;51.148;4.104;2023-04-24T09:19:24;93.38;;;36.22;;
23586;SDS011;11971;51.148;4.104;2023-04-24T09:21:52;93.32;;;35.40;;
23586;SDS011;11971;51.148;4.104;2023-04-24T09:24:20;87.70;;;35.55;;
23586;SDS011;11971;51.148;4.104;2023-04-24T09:26:55;85.40;;;34.08;;
23586;SDS011;11971;51.148;4.104;2023-04-24T09:29:23;83.82;;;34.42;;
23586;SDS011;11971;51.148;4.104;2023-04-24T09:31:50;82.40;;;34.13;;
23586;SDS011;11971;51.148;4.104;2023-04-24T09:34:25;83.60;;;34.25;;
23586;SDS011;11971;51.148;4.104;2023-04-24T09:36:57;83.35;;;34.05;;
23586;SDS011;11971;51.148;4.104;2023-04-24T09:39:24;80.47;;;33.85;;
23586;SDS011;11971;51.148;4.104;2023-04-24T09:41:52;81.32;;;33.80;;
23586;SDS011;11971;51.148;4.104;2023-04-24T09:44:19;79.47;;;33.10;;
23586;SDS011;11971;51.148;4.104;2023-04-24T09:46:50;79.35;;;33.05;;
23586;SDS011;11971;51.148;4.104;2023-04-24T09:49:21;82.07;;;34.00;;
23586;SDS011;11971;51.148;4.104;2023-04-24T09:51:51;86.82;;;34.30;;
23586;SDS011;11971;51.148;4.104;2023-04-24T09:54:22;80.65;;;33.85;;
23586;SDS011;11971;51.148;4.104;2023-04-24T09:56:51;81.80;;;33.97;;
23586;SDS011;11971;51.148;4.104;2023-04-24T09:59:18;82.05;;;33.47;;
23586;SDS011;11971;51.148;4.104;2023-04-24T10:01:46;81.10;;;33.97;;
23586;SDS011;11971;51.148;4.104;2023-04-24T10:04:18;81.03;;;33.70;;
23586;SDS011;11971;51.148;4.104;2023-04-24T10:06:46;85.10;;;35.05;;
23586;SDS011;11971;51.148;4.104;2023-04-24T10:09:27;83.65;;;34.72;;
23586;SDS011;11971;51.148;4.104;2023-04-24T10:11:54;93.38;;;35.10;;
23586;SDS011;11971;51.148;4.104;2023-04-24T10:14:22;84.75;;;34.15;;
23586;SDS011;11971;51.148;4.104;2023-04-24T10:17:03;80.38;;;33.35;;
23586;SDS011;11971;51.148;4.104;2023-04-24T10:19:31;88.93;;;34.47;;
23586;SDS011;11971;51.148;4.104;2023-04-24T10:22:21;81.38;;;33.55;;
23586;SDS011;11971;51.148;4.104;2023-04-24T10:30:52;85.18;;;34.50;;
23586;SDS011;11971;51.148;4.104;2023-04-24T10:33:26;84.75;;;33.78;;
23586;SDS011;11971;51.148;4.104;2023-04-24T10:36:09;85.82;;;35.10;;
23586;SDS011;11971;51.148;4.104;2023-04-24T10:38:41;81.47;;;33.85;;
23586;SDS011;11971;51.148;4.104;2023-04-24T10:41:16;83.15;;;34.33;;
23586;SDS011;11971;51.148;4.104;2023-04-24T10:46:38;88.93;;;35.72;;
23586;SDS011;11971;51.148;4.104;2023-04-24T10:49:29;83.25;;;34.72;;
23586;SDS011;11971;51.148;4.104;2023-04-24T10:51:59;81.37;;;33.73;;
23586;SDS011;11971;51.148;4.104;2023-04-24T10:54:33;84.82;;;35.00;;
23586;SDS011;11971;51.148;4.104;2023-04-24T10:57:27;86.80;;;35.72;;
23586;SDS011;11971;51.148;4.104;2023-04-24T11:00:15;86.80;;;34.65;;
23586;SDS011;11971;51.148;4.104;2023-04-24T11:02:45;82.30;;;34.08;;
23586;SDS011;11971;51.148;4.104;2023-04-24T11:05:15;88.18;;;35.85;;
23586;SDS011;11971;51.148;4.104;2023-04-24T11:10:39;87.90;;;35.28;;
23586;SDS011;11971;51.148;4.104;2023-04-24T11:13:08;86.97;;;34.73;;
23586;SDS011;11971;51.148;4.104;2023-04-24T11:15:36;84.43;;;34.50;;
23586;SDS011;11971;51.148;4.104;2023-04-24T11:18:03;82.45;;;33.97;;
23586;SDS011;11971;51.148;4.104;2023-04-24T11:20:30;85.18;;;34.33;;
23586;SDS011;11971;51.148;4.104;2023-04-24T11:23:00;83.82;;;34.65;;
23586;SDS011;11971;51.148;4.104;2023-04-24T11:25:30;85.35;;;34.97;;
23586;SDS011;11971;51.148;4.104;2023-04-24T11:28:02;85.63;;;34.97;;
23586;SDS011;11971;51.148;4.104;2023-04-24T11:30:29;86.18;;;35.05;;
23586;SDS011;11971;51.148;4.104;2023-04-24T11:33:03;85.00;;;35.13;;
23586;SDS011;11971;51.148;4.104;2023-04-24T11:35:30;90.18;;;35.25;;
23586;SDS011;11971;51.148;4.104;2023-04-24T11:38:02;86.40;;;35.58;;
23586;SDS011;11971;51.148;4.104;2023-04-24T11:40:30;87.28;;;35.67;;
23586;SDS011;11971;51.148;4.104;2023-04-24T11:43:00;82.82;;;34.10;;
23586;SDS011;11971;51.148;4.104;2023-04-24T11:45:27;84.07;;;34.25;;
23586;SDS011;11971;51.148;4.104;2023-04-24T11:47:55;82.40;;;34.22;;
23586;SDS011;11971;51.148;4.104;2023-04-24T11:50:24;85.80;;;35.15;;
23586;SDS011;11971;51.148;4.104;2023-04-24T11:52:54;85.50;;;34.63;;
23586;SDS011;11971;51.148;4.104;2023-04-24T11:55:25;82.13;;;34.22;;
23586;SDS011;11971;51.148;4.104;2023-04-24T11:57:55;85.60;;;34.42;;
23586;SDS011;11971;51.148;4.104;2023-04-24T12:00:25;82.75;;;34.40;;
23586;SDS011;11971;51.148;4.104;2023-04-24T12:03:03;82.97;;;33.88;;
23586;SDS011;11971;51.148;4.104;2023-04-24T12:05:33;85.70;;;34.97;;
23586;SDS011;11971;51.148;4.104;2023-04-24T12:08:00;85.75;;;34.83;;
23586;SDS011;11971;51.148;4.104;2023-04-24T12:10:28;84.03;;;34.05;;
23586;SDS011;11971;51.148;4.104;2023-04-24T12:12:56;100.50;;;35.53;;
23586;SDS011;11971;51.148;4.104;2023-04-24T12:15:25;86.47;;;35.35;;
23586;SDS011;11971;51.148;4.104;2023-04-24T12:17:55;88.70;;;35.65;;
23586;SDS011;11971;51.148;4.104;2023-04-24T12:20:26;84.47;;;34.45;;
23586;SDS011;11971;51.148;4.104;2023-04-24T12:22:56;85.25;;;34.38;;
23586;SDS011;11971;51.148;4.104;2023-04-24T12:25:27;86.38;;;34.42;;
23586;SDS011;11971;51.148;4.104;2023-04-24T12:27:54;84.40;;;34.60;;
23586;SDS011;11971;51.148;4.104;2023-04-24T12:30:26;84.82;;;34.55;;
23586;SDS011;11971;51.148;4.104;2023-04-24T12:32:54;83.40;;;34.20;;
23586;SDS011;11971;51.148;4.104;2023-04-24T12:35:24;83.32;;;34.55;;
23586;SDS011;11971;51.148;4.104;2023-04-24T12:37:52;82.15;;;34.03;;
23586;SDS011;11971;51.148;4.104;2023-04-24T12:40:21;85.38;;;34.97;;
23586;SDS011;11971;51.148;4.104;2023-04-24T12:42:49;87.20;;;34.80;;
23586;SDS011;11971;51.148;4.104;2023-04-24T12:45:20;86.45;;;34.22;;
23586;SDS011;11971;51.148;4.104;2023-04-24T12:47:50;84.40;;;34.58;;
23586;SDS011;11971;51.148;4.104;2023-04-24T12:50:17;80.75;;;33.65;;
23586;SDS011;11971;51.148;4.104;2023-04-24T12:52:44;82.40;;;34.53;;
23586;SDS011;11971;51.148;4.104;2023-04-24T12:55:11;80.53;;;33.63;;
23586;SDS011;11971;51.148;4.104;2023-04-24T12:57:40;82.30;;;34.10;;
23586;SDS011;11971;51.148;4.104;2023-04-24T13:00:07;86.68;;;35.72;;
23586;SDS011;11971;51.148;4.104;2023-04-24T13:02:34;85.72;;;35.45;;
23586;SDS011;11971;51.148;4.104;2023-04-24T13:05:01;86.75;;;35.25;;
23586;SDS011;11971;51.148;4.104;2023-04-24T13:07:28;88.78;;;36.45;;
23586;SDS011;11971;51.148;4.104;2023-04-24T13:09:55;86.90;;;35.97;;
23586;SDS011;11971;51.148;4.104;2023-04-24T13:12:23;85.60;;;35.08;;
23586;SDS011;11971;51.148;4.104;2023-04-24T13:14:52;93.07;;;36.35;;
23586;SDS011;11971;51.148;4.104;2023-04-24T13:17:18;93.32;;;37.25;;
23586;SDS011;11971;51.148;4.104;2023-04-24T13:19:45;86.45;;;34.53;;
23586;SDS011;11971;51.148;4.104;2023-04-24T13:22:12;86.10;;;35.67;;
23586;SDS011;11971;51.148;4.104;2023-04-24T13:24:39;89.18;;;36.35;;
23586;SDS011;11971;51.148;4.104;2023-04-24T13:27:07;85.70;;;34.95;;
23586;SDS011;11971;51.148;4.104;2023-04-24T13:29:34;89.10;;;35.63;;
23586;SDS011;11971;51.148;4.104;2023-04-24T13:32:05;85.95;;;35.22;;
23586;SDS011;11971;51.148;4.104;2023-04-24T13:34:32;86.43;;;34.97;;
23586;SDS011;11971;51.148;4.104;2023-04-24T13:36:59;85.50;;;34.85;;
23586;SDS011;11971;51.148;4.104;2023-04-24T13:39:28;83.80;;;34.35;;
23586;SDS011;11971;51.148;4.104;2023-04-24T13:42:00;85.68;;;34.45;;
23586;SDS011;11971;51.148;4.104;2023-04-24T13:44:29;85.78;;;34.55;;
23586;SDS011;11971;51.148;4.104;2023-04-24T13:50:31;83.03;;;34.25;;
23586;SDS011;11971;51.148;4.104;2023-04-24T13:52:59;83.13;;;34.03;;
23586;SDS011;11971;51.148;4.104;2023-04-24T13:55:26;85.43;;;34.90;;
23586;SDS011;11971;51.148;4.104;2023-04-24T13:57:53;88.03;;;34.70;;
23586;SDS011;11971;51.148;4.104;2023-04-24T14:00:21;83.88;;;34.40;;
23586;SDS011;11971;51.148;4.104;2023-04-24T14:02:48;87.00;;;34.58;;
23586;SDS011;11971;51.148;4.104;2023-04-24T14:05:17;82.75;;;33.92;;
23586;SDS011;11971;51.148;4.104;2023-04-24T14:07:44;84.28;;;34.42;;
23586;SDS011;11971;51.148;4.104;2023-04-24T14:10:10;84.05;;;34.55;;
23586;SDS011;11971;51.148;4.104;2023-04-24T14:12:37;83.53;;;34.47;;
23586;SDS011;11971;51.148;4.104;2023-04-24T14:15:07;85.90;;;34.92;;
23586;SDS011;11971;51.148;4.104;2023-04-24T14:17:35;84.55;;;34.58;;
23586;SDS011;11971;51.148;4.104;2023-04-24T14:20:02;86.00;;;34.90;;
23586;SDS011;11971;51.148;4.104;2023-04-24T14:22:32;84.63;;;34.42;;
23586;SDS011;11971;51.148;4.104;2023-04-24T14:25:01;86.57;;;35.38;;
23586;SDS011;11971;51.148;4.104;2023-04-24T14:27:29;92.60;;;35.28;;
23586;SDS011;11971;51.148;4.104;2023-04-24T14:35:10;104.07;;;41.58;;
23586;SDS011;11971;51.148;4.104;2023-04-24T14:37:41;85.68;;;35.13;;
23586;SDS011;11971;51.148;4.104;2023-04-24T14:42:43;88.97;;;35.70;;
23586;SDS011;11971;51.148;4.104;2023-04-24T14:45:38;89.50;;;34.80;;
23586;SDS011;11971;51.148;4.104;2023-04-24T14:48:13;84.03;;;34.72;;
23586;SDS011;11971;51.148;4.104;2023-04-24T14:50:44;86.68;;;34.70;;
23586;SDS011;11971;51.148;4.104;2023-04-24T14:56:22;86.47;;;35.30;;
23586;SDS011;11971;51.148;4.104;2023-04-24T14:58:49;87.35;;;35.38;;
23586;SDS011;11971;51.148;4.104;2023-04-24T15:01:18;87.43;;;34.83;;